sensor_id;sensor_type;location;lat;lon;timestamp;temperature;humidity
43810;DHT22;29440;48.208;11.162;2023-04-24T00:02:14;11.00;99.90
43810;DHT22;29440;48.208;11.162;2023-04-24T00:04:39;10.90;99.90
43810;DHT22;29440;48.208;11.162;2023-04-24T00:07:06;10.90;99.90
43810;DHT22;29440;48.208;11.162;2023-04-24T00:09:32;10.90;99.90
43810;DHT22;29440;48.208;11.162;2023-04-24T00:11:58;10.80;99.90
43810;DHT22;29440;48.208;11.162;2023-04-24T00:14:24;10.90;99.90
43810;DHT22;29440;48.208;11.162;2023-04-24T00:16:49;10.80;99.90
43810;DHT22;29440;48.208;11.162;2023-04-24T00:19:15;10.80;99.90
43810;DHT22;29440;48.208;11.162;2023-04-24T00:21:41;10.80;99.90
43810;DHT22;29440;48.208;11.162;2023-04-24T00:24:07;10.70;99.90
43810;DHT22;29440;48.208;11.162;2023-04-24T00:26:34;10.70;99.90
43810;DHT22;29440;48.208;11.162;2023-04-24T00:29:00;10.70;99.90
43810;DHT22;29440;48.208;11.162;2023-04-24T00:31:25;10.70;99.90
43810;DHT22;29440;48.208;11.162;2023-04-24T00:33:51;10.60;99.90
43810;DHT22;29440;48.208;11.162;2023-04-24T00:36:16;10.60;99.90
43810;DHT22;29440;48.208;11.162;2023-04-24T00:38:44;10.60;99.90
43810;DHT22;29440;48.208;11.162;2023-04-24T00:41:11;10.60;99.90
43810;DHT22;29440;48.208;11.162;2023-04-24T00:43:36;10.50;99.90
43810;DHT22;29440;48.208;11.162;2023-04-24T00:46:02;10.70;99.90
43810;DHT22;29440;48.208;11.162;2023-04-24T00:48:28;10.60;99.90
43810;DHT22;29440;48.208;11.162;2023-04-24T00:50:53;10.50;99.90
43810;DHT22;29440;48.208;11.162;2023-04-24T00:53:19;10.50;99.90
43810;DHT22;29440;48.208;11.162;2023-04-24T00:55:45;10.40;99.90
43810;DHT22;29440;48.208;11.162;2023-04-24T00:58:12;10.40;99.90
43810;DHT22;29440;48.208;11.162;2023-04-24T01:00:38;10.40;99.90
43810;DHT22;29440;48.208;11.162;2023-04-24T01:03:04;10.40;99.90
43810;DHT22;29440;48.208;11.162;2023-04-24T01:05:31;10.30;99.90
43810;DHT22;29440;48.208;11.162;2023-04-24T01:07:57;10.30;99.90
43810;DHT22;29440;48.208;11.162;2023-04-24T01:10:24;10.30;99.90
43810;DHT22;29440;48.208;11.162;2023-04-24T01:12:51;10.30;99.90
43810;DHT22;29440;48.208;11.162;2023-04-24T01:15:17;10.30;99.90
43810;DHT22;29440;48.208;11.162;2023-04-24T01:17:42;10.30;99.90
43810;DHT22;29440;48.208;11.162;2023-04-24T01:20:08;10.20;99.90
43810;DHT22;29440;48.208;11.162;2023-04-24T01:22:34;10.20;99.90
43810;DHT22;29440;48.208;11.162;2023-04-24T01:25:00;10.20;99.90
43810;DHT22;29440;48.208;11.162;2023-04-24T01:27:25;10.20;99.90
43810;DHT22;29440;48.208;11.162;2023-04-24T01:29:51;10.20;99.90
43810;DHT22;29440;48.208;11.162;2023-04-24T01:32:17;10.20;99.90
43810;DHT22;29440;48.208;11.162;2023-04-24T01:34:44;10.20;99.90
43810;DHT22;29440;48.208;11.162;2023-04-24T01:37:10;10.20;99.90
43810;DHT22;29440;48.208;11.162;2023-04-24T01:39:36;10.20;99.90
43810;DHT22;29440;48.208;11.162;2023-04-24T01:42:01;10.20;99.90
43810;DHT22;29440;48.208;11.162;2023-04-24T01:44:27;10.10;99.90
43810;DHT22;29440;48.208;11.162;2023-04-24T01:46:54;10.20;99.90
43810;DHT22;29440;48.208;11.162;2023-04-24T01:49:20;10.10;99.90
43810;DHT22;29440;48.208;11.162;2023-04-24T01:51:46;10.10;99.90
43810;DHT22;29440;48.208;11.162;2023-04-24T01:54:12;10.10;99.90
43810;DHT22;29440;48.208;11.162;2023-04-24T01:56:41;10.10;99.90
43810;DHT22;29440;48.208;11.162;2023-04-24T01:59:10;10.10;99.90
43810;DHT22;29440;48.208;11.162;2023-04-24T02:01:36;10.10;99.90
43810;DHT22;29440;48.208;11.162;2023-04-24T02:04:03;10.10;99.90
43810;DHT22;29440;48.208;11.162;2023-04-24T02:06:28;10.10;99.90
43810;DHT22;29440;48.208;11.162;2023-04-24T02:08:54;10.10;99.90
43810;DHT22;29440;48.208;11.162;2023-04-24T02:11:20;10.10;99.90
43810;DHT22;29440;48.208;11.162;2023-04-24T02:13:45;10.10;99.90
43810;DHT22;29440;48.208;11.162;2023-04-24T02:16:11;10.10;99.90
43810;DHT22;29440;48.208;11.162;2023-04-24T02:18:36;10.10;99.90
43810;DHT22;29440;48.208;11.162;2023-04-24T02:21:02;10.10;99.90
43810;DHT22;29440;48.208;11.162;2023-04-24T02:23:27;10.00;99.90
43810;DHT22;29440;48.208;11.162;2023-04-24T02:25:53;10.10;99.90
43810;DHT22;29440;48.208;11.162;2023-04-24T02:28:19;10.10;99.90
43810;DHT22;29440;48.208;11.162;2023-04-24T02:30:45;10.00;99.90
43810;DHT22;29440;48.208;11.162;2023-04-24T02:33:11;10.00;99.90
43810;DHT22;29440;48.208;11.162;2023-04-24T02:35:37;10.00;99.90
43810;DHT22;29440;48.208;11.162;2023-04-24T02:38:03;10.00;99.90
43810;DHT22;29440;48.208;11.162;2023-04-24T02:40:29;10.10;99.90
43810;DHT22;29440;48.208;11.162;2023-04-24T02:42:54;10.10;99.90
43810;DHT22;29440;48.208;11.162;2023-04-24T02:45:20;10.10;99.90
43810;DHT22;29440;48.208;11.162;2023-04-24T02:47:46;10.00;99.90
43810;DHT22;29440;48.208;11.162;2023-04-24T02:50:11;10.00;99.90
43810;DHT22;29440;48.208;11.162;2023-04-24T02:52:37;10.00;99.90
43810;DHT22;29440;48.208;11.162;2023-04-24T02:55:02;10.00;99.90
43810;DHT22;29440;48.208;11.162;2023-04-24T02:57:28;10.00;99.90
43810;DHT22;29440;48.208;11.162;2023-04-24T02:59:54;10.00;99.90
43810;DHT22;29440;48.208;11.162;2023-04-24T03:02:19;10.00;99.90
43810;DHT22;29440;48.208;11.162;2023-04-24T03:04:46;10.00;99.90
43810;DHT22;29440;48.208;11.162;2023-04-24T03:07:14;10.00;99.90
43810;DHT22;29440;48.208;11.162;2023-04-24T03:09:40;10.00;99.90
43810;DHT22;29440;48.208;11.162;2023-04-24T03:12:05;10.00;99.90
43810;DHT22;29440;48.208;11.162;2023-04-24T03:14:31;10.00;99.90
43810;DHT22;29440;48.208;11.162;2023-04-24T03:16:57;9.90;99.90
43810;DHT22;29440;48.208;11.162;2023-04-24T03:19:22;9.90;99.90
43810;DHT22;29440;48.208;11.162;2023-04-24T03:21:48;10.00;99.90
43810;DHT22;29440;48.208;11.162;2023-04-24T03:24:14;9.90;99.90
43810;DHT22;29440;48.208;11.162;2023-04-24T03:26:39;9.90;99.90
43810;DHT22;29440;48.208;11.162;2023-04-24T03:29:05;9.90;99.90
43810;DHT22;29440;48.208;11.162;2023-04-24T03:31:30;9.90;99.90
43810;DHT22;29440;48.208;11.162;2023-04-24T03:33:56;9.90;99.90
43810;DHT22;29440;48.208;11.162;2023-04-24T03:36:22;9.90;99.90
43810;DHT22;29440;48.208;11.162;2023-04-24T03:38:47;9.80;99.90
43810;DHT22;29440;48.208;11.162;2023-04-24T03:41:13;9.90;99.90
43810;DHT22;29440;48.208;11.162;2023-04-24T03:43:39;9.80;99.90
43810;DHT22;29440;48.208;11.162;2023-04-24T03:46:05;9.90;99.90
43810;DHT22;29440;48.208;11.162;2023-04-24T03:48:31;9.80;99.90
43810;DHT22;29440;48.208;11.162;2023-04-24T03:50:56;9.90;99.90
43810;DHT22;29440;48.208;11.162;2023-04-24T03:53:22;9.80;99.90
43810;DHT22;29440;48.208;11.162;2023-04-24T03:55:47;9.80;99.90
43810;DHT22;29440;48.208;11.162;2023-04-24T03:58:13;9.80;99.90
43810;DHT22;29440;48.208;11.162;2023-04-24T04:00:41;9.80;99.90
43810;DHT22;29440;48.208;11.162;2023-04-24T04:03:07;9.80;99.90
43810;DHT22;29440;48.208;11.162;2023-04-24T04:05:32;9.80;99.90
43810;DHT22;29440;48.208;11.162;2023-04-24T04:07:58;9.90;99.90
43810;DHT22;29440;48.208;11.162;2023-04-24T04:10:23;9.80;99.90
43810;DHT22;29440;48.208;11.162;2023-04-24T04:12:49;9.80;99.90
43810;DHT22;29440;48.208;11.162;2023-04-24T04:15:14;9.80;99.90
43810;DHT22;29440;48.208;11.162;2023-04-24T04:17:40;9.70;99.90
43810;DHT22;29440;48.208;11.162;2023-04-24T04:20:06;9.70;99.90
43810;DHT22;29440;48.208;11.162;2023-04-24T04:22:35;9.70;99.90
43810;DHT22;29440;48.208;11.162;2023-04-24T04:25:01;9.80;99.90
43810;DHT22;29440;48.208;11.162;2023-04-24T04:27:26;9.80;99.90
43810;DHT22;29440;48.208;11.162;2023-04-24T04:29:53;9.70;99.90
43810;DHT22;29440;48.208;11.162;2023-04-24T04:32:19;9.70;99.90
43810;DHT22;29440;48.208;11.162;2023-04-24T04:34:44;9.80;99.90
43810;DHT22;29440;48.208;11.162;2023-04-24T04:37:14;9.80;99.90
43810;DHT22;29440;48.208;11.162;2023-04-24T04:39:40;9.70;99.90
43810;DHT22;29440;48.208;11.162;2023-04-24T04:42:06;9.80;99.90
43810;DHT22;29440;48.208;11.162;2023-04-24T04:44:32;9.90;99.90
43810;DHT22;29440;48.208;11.162;2023-04-24T04:46:58;9.70;99.90
43810;DHT22;29440;48.208;11.162;2023-04-24T04:49:24;9.70;99.90
43810;DHT22;29440;48.208;11.162;2023-04-24T04:51:50;9.70;99.90
43810;DHT22;29440;48.208;11.162;2023-04-24T04:54:16;9.70;99.90
43810;DHT22;29440;48.208;11.162;2023-04-24T04:56:42;9.70;99.90
43810;DHT22;29440;48.208;11.162;2023-04-24T04:59:07;9.70;99.90
43810;DHT22;29440;48.208;11.162;2023-04-24T05:01:33;9.70;99.90
43810;DHT22;29440;48.208;11.162;2023-04-24T05:03:58;9.70;99.90
43810;DHT22;29440;48.208;11.162;2023-04-24T05:06:24;9.70;99.90
43810;DHT22;29440;48.208;11.162;2023-04-24T05:08:50;9.70;99.90
43810;DHT22;29440;48.208;11.162;2023-04-24T05:11:16;9.70;99.90
43810;DHT22;29440;48.208;11.162;2023-04-24T05:13:42;9.70;99.90
43810;DHT22;29440;48.208;11.162;2023-04-24T05:16:07;9.70;99.90
43810;DHT22;29440;48.208;11.162;2023-04-24T05:18:33;9.80;99.90
43810;DHT22;29440;48.208;11.162;2023-04-24T05:20:58;9.80;99.90
43810;DHT22;29440;48.208;11.162;2023-04-24T05:23:24;9.90;99.90
43810;DHT22;29440;48.208;11.162;2023-04-24T05:25:49;9.80;99.90
43810;DHT22;29440;48.208;11.162;2023-04-24T05:28:15;9.80;99.90
43810;DHT22;29440;48.208;11.162;2023-04-24T05:30:40;9.90;99.90
43810;DHT22;29440;48.208;11.162;2023-04-24T05:33:06;9.90;99.90
43810;DHT22;29440;48.208;11.162;2023-04-24T05:35:32;9.90;99.90
43810;DHT22;29440;48.208;11.162;2023-04-24T05:37:57;9.90;99.90
43810;DHT22;29440;48.208;11.162;2023-04-24T05:40:23;9.90;99.90
43810;DHT22;29440;48.208;11.162;2023-04-24T05:42:48;10.00;99.90
43810;DHT22;29440;48.208;11.162;2023-04-24T05:45:14;10.00;99.90
43810;DHT22;29440;48.208;11.162;2023-04-24T05:47:42;10.00;99.90
43810;DHT22;29440;48.208;11.162;2023-04-24T05:50:10;10.10;99.90
43810;DHT22;29440;48.208;11.162;2023-04-24T05:52:35;10.10;99.90
43810;DHT22;29440;48.208;11.162;2023-04-24T05:55:01;10.10;99.90
43810;DHT22;29440;48.208;11.162;2023-04-24T05:57:26;10.20;99.90
43810;DHT22;29440;48.208;11.162;2023-04-24T05:59:52;10.20;99.90
43810;DHT22;29440;48.208;11.162;2023-04-24T06:02:18;10.20;99.90
43810;DHT22;29440;48.208;11.162;2023-04-24T06:04:43;10.30;99.90
43810;DHT22;29440;48.208;11.162;2023-04-24T06:07:11;10.30;99.90
43810;DHT22;29440;48.208;11.162;2023-04-24T06:09:36;10.30;99.90
43810;DHT22;29440;48.208;11.162;2023-04-24T06:12:02;10.30;99.90
43810;DHT22;29440;48.208;11.162;2023-04-24T06:14:28;10.40;99.90
43810;DHT22;29440;48.208;11.162;2023-04-24T06:16:53;10.40;99.90
43810;DHT22;29440;48.208;11.162;2023-04-24T06:19:19;10.40;99.90
43810;DHT22;29440;48.208;11.162;2023-04-24T06:21:45;10.50;99.90
43810;DHT22;29440;48.208;11.162;2023-04-24T06:24:14;10.40;99.90
43810;DHT22;29440;48.208;11.162;2023-04-24T06:26:41;10.40;99.90
43810;DHT22;29440;48.208;11.162;2023-04-24T06:29:06;10.40;99.90
43810;DHT22;29440;48.208;11.162;2023-04-24T06:31:32;10.40;99.90
43810;DHT22;29440;48.208;11.162;2023-04-24T06:34:03;10.50;99.90
43810;DHT22;29440;48.208;11.162;2023-04-24T06:36:28;10.50;99.90
43810;DHT22;29440;48.208;11.162;2023-04-24T06:38:54;10.50;99.90
43810;DHT22;29440;48.208;11.162;2023-04-24T06:41:20;10.60;99.90
43810;DHT22;29440;48.208;11.162;2023-04-24T06:43:45;10.60;99.90
43810;DHT22;29440;48.208;11.162;2023-04-24T06:46:11;10.70;99.90
43810;DHT22;29440;48.208;11.162;2023-04-24T06:48:37;10.70;99.90
43810;DHT22;29440;48.208;11.162;2023-04-24T06:51:03;10.70;99.90
43810;DHT22;29440;48.208;11.162;2023-04-24T06:53:28;10.80;99.90
43810;DHT22;29440;48.208;11.162;2023-04-24T06:55:54;10.90;99.90
43810;DHT22;29440;48.208;11.162;2023-04-24T06:58:20;10.80;99.90
43810;DHT22;29440;48.208;11.162;2023-04-24T07:00:46;10.90;99.90
43810;DHT22;29440;48.208;11.162;2023-04-24T07:03:11;11.00;99.90
43810;DHT22;29440;48.208;11.162;2023-04-24T07:05:37;11.00;99.90
43810;DHT22;29440;48.208;11.162;2023-04-24T07:08:03;11.10;99.90
43810;DHT22;29440;48.208;11.162;2023-04-24T07:10:29;11.20;99.90
43810;DHT22;29440;48.208;11.162;2023-04-24T07:12:55;11.20;99.90
43810;DHT22;29440;48.208;11.162;2023-04-24T07:15:24;11.20;99.90
43810;DHT22;29440;48.208;11.162;2023-04-24T07:17:50;11.20;99.90
43810;DHT22;29440;48.208;11.162;2023-04-24T07:20:15;11.20;99.90
43810;DHT22;29440;48.208;11.162;2023-04-24T07:22:41;11.20;99.90
43810;DHT22;29440;48.208;11.162;2023-04-24T07:25:07;11.30;99.90
43810;DHT22;29440;48.208;11.162;2023-04-24T07:27:34;11.30;99.90
43810;DHT22;29440;48.208;11.162;2023-04-24T07:30:00;11.40;99.90
43810;DHT22;29440;48.208;11.162;2023-04-24T07:32:26;11.40;99.90
43810;DHT22;29440;48.208;11.162;2023-04-24T07:34:51;11.50;99.90
43810;DHT22;29440;48.208;11.162;2023-04-24T07:37:17;11.50;99.90
43810;DHT22;29440;48.208;11.162;2023-04-24T07:39:43;11.50;99.90
43810;DHT22;29440;48.208;11.162;2023-04-24T07:42:08;11.50;99.90
43810;DHT22;29440;48.208;11.162;2023-04-24T07:44:34;11.50;99.90
43810;DHT22;29440;48.208;11.162;2023-04-24T07:47:00;11.60;99.90
43810;DHT22;29440;48.208;11.162;2023-04-24T07:49:25;11.40;99.90
43810;DHT22;29440;48.208;11.162;2023-04-24T07:51:53;11.40;99.90
43810;DHT22;29440;48.208;11.162;2023-04-24T07:54:19;11.40;99.90
43810;DHT22;29440;48.208;11.162;2023-04-24T07:56:45;11.30;99.90
43810;DHT22;29440;48.208;11.162;2023-04-24T07:59:11;11.30;99.90
43810;DHT22;29440;48.208;11.162;2023-04-24T08:01:36;11.30;99.90
43810;DHT22;29440;48.208;11.162;2023-04-24T08:04:02;11.30;99.90
43810;DHT22;29440;48.208;11.162;2023-04-24T08:06:28;11.20;99.90
43810;DHT22;29440;48.208;11.162;2023-04-24T08:08:56;11.10;99.90
43810;DHT22;29440;48.208;11.162;2023-04-24T08:11:24;11.00;99.90
43810;DHT22;29440;48.208;11.162;2023-04-24T08:13:49;11.00;99.90
43810;DHT22;29440;48.208;11.162;2023-04-24T08:16:15;10.90;99.90
43810;DHT22;29440;48.208;11.162;2023-04-24T08:18:41;10.80;99.90
43810;DHT22;29440;48.208;11.162;2023-04-24T08:21:06;10.80;99.90
43810;DHT22;29440;48.208;11.162;2023-04-24T08:23:32;10.80;99.90
43810;DHT22;29440;48.208;11.162;2023-04-24T08:25:57;10.80;99.90
43810;DHT22;29440;48.208;11.162;2023-04-24T08:28:23;10.90;99.90
43810;DHT22;29440;48.208;11.162;2023-04-24T08:30:49;10.90;99.90
43810;DHT22;29440;48.208;11.162;2023-04-24T08:33:22;10.90;99.90
43810;DHT22;29440;48.208;11.162;2023-04-24T08:35:47;11.00;99.90
43810;DHT22;29440;48.208;11.162;2023-04-24T08:38:13;11.00;99.90
43810;DHT22;29440;48.208;11.162;2023-04-24T08:40:38;11.20;99.90
43810;DHT22;29440;48.208;11.162;2023-04-24T08:43:04;11.10;99.90
43810;DHT22;29440;48.208;11.162;2023-04-24T08:45:30;11.10;99.90
43810;DHT22;29440;48.208;11.162;2023-04-24T08:47:58;11.00;99.90
43810;DHT22;29440;48.208;11.162;2023-04-24T08:50:24;11.00;99.90
43810;DHT22;29440;48.208;11.162;2023-04-24T08:52:50;11.10;99.90
43810;DHT22;29440;48.208;11.162;2023-04-24T08:55:18;11.10;99.90
43810;DHT22;29440;48.208;11.162;2023-04-24T08:57:46;11.20;99.90
43810;DHT22;29440;48.208;11.162;2023-04-24T09:00:15;11.40;99.90
43810;DHT22;29440;48.208;11.162;2023-04-24T09:02:45;11.30;99.90
43810;DHT22;29440;48.208;11.162;2023-04-24T09:05:13;11.40;99.90
43810;DHT22;29440;48.208;11.162;2023-04-24T09:07:39;11.50;99.90
43810;DHT22;29440;48.208;11.162;2023-04-24T09:10:07;11.60;99.90
43810;DHT22;29440;48.208;11.162;2023-04-24T09:12:34;11.70;99.90
43810;DHT22;29440;48.208;11.162;2023-04-24T09:15:00;11.80;99.90
43810;DHT22;29440;48.208;11.162;2023-04-24T09:17:29;11.80;99.90
43810;DHT22;29440;48.208;11.162;2023-04-24T09:19:57;11.90;99.90
43810;DHT22;29440;48.208;11.162;2023-04-24T09:22:23;12.00;99.90
43810;DHT22;29440;48.208;11.162;2023-04-24T09:25:08;11.80;99.90
43810;DHT22;29440;48.208;11.162;2023-04-24T09:27:35;11.90;99.90
43810;DHT22;29440;48.208;11.162;2023-04-24T09:30:01;12.00;99.90
43810;DHT22;29440;48.208;11.162;2023-04-24T09:32:27;12.20;99.90
43810;DHT22;29440;48.208;11.162;2023-04-24T09:35:15;12.10;99.90
43810;DHT22;29440;48.208;11.162;2023-04-24T09:37:45;12.20;99.90
43810;DHT22;29440;48.208;11.162;2023-04-24T09:40:18;12.20;99.90
43810;DHT22;29440;48.208;11.162;2023-04-24T09:42:46;12.30;99.90
43810;DHT22;29440;48.208;11.162;2023-04-24T09:45:16;12.40;99.90
43810;DHT22;29440;48.208;11.162;2023-04-24T09:47:43;12.50;99.90
43810;DHT22;29440;48.208;11.162;2023-04-24T09:50:10;12.60;99.90
43810;DHT22;29440;48.208;11.162;2023-04-24T09:52:40;12.70;99.90
43810;DHT22;29440;48.208;11.162;2023-04-24T09:55:18;12.80;99.90
43810;DHT22;29440;48.208;11.162;2023-04-24T09:57:52;13.00;99.90
43810;DHT22;29440;48.208;11.162;2023-04-24T10:00:22;13.20;99.90
43810;DHT22;29440;48.208;11.162;2023-04-24T10:02:55;13.30;99.90
43810;DHT22;29440;48.208;11.162;2023-04-24T10:05:26;13.40;99.90
43810;DHT22;29440;48.208;11.162;2023-04-24T10:07:56;13.60;99.90
43810;DHT22;29440;48.208;11.162;2023-04-24T10:10:22;13.60;99.90
43810;DHT22;29440;48.208;11.162;2023-04-24T10:12:49;13.60;99.90
43810;DHT22;29440;48.208;11.162;2023-04-24T10:15:16;13.50;99.90
43810;DHT22;29440;48.208;11.162;2023-04-24T10:17:50;13.40;99.90
43810;DHT22;29440;48.208;11.162;2023-04-24T10:20:23;13.20;99.90
43810;DHT22;29440;48.208;11.162;2023-04-24T10:22:51;12.90;99.90
43810;DHT22;29440;48.208;11.162;2023-04-24T10:25:19;12.50;99.90
43810;DHT22;29440;48.208;11.162;2023-04-24T10:27:46;12.20;99.90
43810;DHT22;29440;48.208;11.162;2023-04-24T10:30:13;11.90;99.90
43810;DHT22;29440;48.208;11.162;2023-04-24T10:32:39;11.60;99.90
43810;DHT22;29440;48.208;11.162;2023-04-24T10:35:06;11.40;99.90
43810;DHT22;29440;48.208;11.162;2023-04-24T10:37:46;11.20;99.90
43810;DHT22;29440;48.208;11.162;2023-04-24T10:40:18;11.10;99.90
43810;DHT22;29440;48.208;11.162;2023-04-24T10:42:47;11.00;99.90
43810;DHT22;29440;48.208;11.162;2023-04-24T10:45:17;11.10;99.90
43810;DHT22;29440;48.208;11.162;2023-04-24T10:47:57;11.30;99.90
43810;DHT22;29440;48.208;11.162;2023-04-24T10:50:25;11.50;99.90
43810;DHT22;29440;48.208;11.162;2023-04-24T10:52:51;11.70;99.90
43810;DHT22;29440;48.208;11.162;2023-04-24T10:55:41;11.80;99.90
43810;DHT22;29440;48.208;11.162;2023-04-24T10:58:07;12.00;99.90
43810;DHT22;29440;48.208;11.162;2023-04-24T11:00:36;12.20;99.90
43810;DHT22;29440;48.208;11.162;2023-04-24T11:03:09;12.60;99.90
43810;DHT22;29440;48.208;11.162;2023-04-24T11:11:06;12.70;99.90
43810;DHT22;29440;48.208;11.162;2023-04-24T11:18:51;12.90;99.90
43810;DHT22;29440;48.208;11.162;2023-04-24T11:21:20;13.00;99.90
43810;DHT22;29440;48.208;11.162;2023-04-24T11:23:46;13.00;99.90
43810;DHT22;29440;48.208;11.162;2023-04-24T11:26:21;13.30;99.90
43810;DHT22;29440;48.208;11.162;2023-04-24T11:28:49;13.40;99.90
43810;DHT22;29440;48.208;11.162;2023-04-24T11:31:37;13.40;99.90
43810;DHT22;29440;48.208;11.162;2023-04-24T11:34:10;13.60;99.90
43810;DHT22;29440;48.208;11.162;2023-04-24T11:36:36;13.60;99.90
43810;DHT22;29440;48.208;11.162;2023-04-24T11:39:02;13.70;99.90
43810;DHT22;29440;48.208;11.162;2023-04-24T11:41:28;13.80;99.90
43810;DHT22;29440;48.208;11.162;2023-04-24T11:43:54;14.00;99.90
43810;DHT22;29440;48.208;11.162;2023-04-24T11:46:30;14.10;99.90
43810;DHT22;29440;48.208;11.162;2023-04-24T11:48:56;14.40;99.90
43810;DHT22;29440;48.208;11.162;2023-04-24T11:51:23;14.50;99.90
43810;DHT22;29440;48.208;11.162;2023-04-24T11:53:50;14.60;99.90
43810;DHT22;29440;48.208;11.162;2023-04-24T11:56:23;14.50;99.90
43810;DHT22;29440;48.208;11.162;2023-04-24T11:58:52;14.50;99.90
43810;DHT22;29440;48.208;11.162;2023-04-24T12:01:18;14.60;99.90
43810;DHT22;29440;48.208;11.162;2023-04-24T12:03:50;14.70;99.90
43810;DHT22;29440;48.208;11.162;2023-04-24T12:06:24;14.80;99.90
43810;DHT22;29440;48.208;11.162;2023-04-24T12:08:52;14.90;99.90
43810;DHT22;29440;48.208;11.162;2023-04-24T12:11:18;15.00;99.90
43810;DHT22;29440;48.208;11.162;2023-04-24T12:13:44;15.10;99.90
43810;DHT22;29440;48.208;11.162;2023-04-24T12:16:10;15.10;99.90
43810;DHT22;29440;48.208;11.162;2023-04-24T12:18:44;15.10;99.90
43810;DHT22;29440;48.208;11.162;2023-04-24T12:21:22;15.10;99.90
43810;DHT22;29440;48.208;11.162;2023-04-24T12:23:48;15.10;99.90
43810;DHT22;29440;48.208;11.162;2023-04-24T12:26:20;15.10;99.90
43810;DHT22;29440;48.208;11.162;2023-04-24T12:28:48;15.00;99.90
43810;DHT22;29440;48.208;11.162;2023-04-24T12:31:15;15.10;99.90
43810;DHT22;29440;48.208;11.162;2023-04-24T12:33:41;15.10;99.90
43810;DHT22;29440;48.208;11.162;2023-04-24T12:36:10;15.00;99.90
43810;DHT22;29440;48.208;11.162;2023-04-24T12:38:35;14.70;99.90
43810;DHT22;29440;48.208;11.162;2023-04-24T12:41:09;14.60;99.90
43810;DHT22;29440;48.208;11.162;2023-04-24T12:43:35;14.40;99.90
43810;DHT22;29440;48.208;11.162;2023-04-24T12:46:02;14.20;99.90
43810;DHT22;29440;48.208;11.162;2023-04-24T12:48:28;14.10;99.90
43810;DHT22;29440;48.208;11.162;2023-04-24T12:50:54;14.00;99.90
43810;DHT22;29440;48.208;11.162;2023-04-24T12:53:21;14.00;99.90
43810;DHT22;29440;48.208;11.162;2023-04-24T12:55:47;14.10;99.90
43810;DHT22;29440;48.208;11.162;2023-04-24T12:58:19;14.20;99.90
43810;DHT22;29440;48.208;11.162;2023-04-24T13:00:45;14.40;99.90
43810;DHT22;29440;48.208;11.162;2023-04-24T13:03:12;14.50;99.90
43810;DHT22;29440;48.208;11.162;2023-04-24T13:05:37;14.70;99.90
43810;DHT22;29440;48.208;11.162;2023-04-24T13:08:03;14.70;99.90
43810;DHT22;29440;48.208;11.162;2023-04-24T13:10:28;14.80;99.90
43810;DHT22;29440;48.208;11.162;2023-04-24T13:12:54;14.80;99.90
43810;DHT22;29440;48.208;11.162;2023-04-24T13:15:20;14.80;99.90
43810;DHT22;29440;48.208;11.162;2023-04-24T13:17:45;14.80;99.90
43810;DHT22;29440;48.208;11.162;2023-04-24T13:20:11;14.90;99.90
43810;DHT22;29440;48.208;11.162;2023-04-24T13:22:36;14.90;99.90
43810;DHT22;29440;48.208;11.162;2023-04-24T13:25:02;14.90;99.90
43810;DHT22;29440;48.208;11.162;2023-04-24T13:27:28;14.90;99.90
43810;DHT22;29440;48.208;11.162;2023-04-24T13:29:54;15.00;99.90
43810;DHT22;29440;48.208;11.162;2023-04-24T13:32:19;15.20;99.90
43810;DHT22;29440;48.208;11.162;2023-04-24T13:34:45;15.10;99.90
43810;DHT22;29440;48.208;11.162;2023-04-24T13:37:12;14.90;99.90
43810;DHT22;29440;48.208;11.162;2023-04-24T13:39:38;14.60;99.90
43810;DHT22;29440;48.208;11.162;2023-04-24T13:42:03;14.40;99.90
43810;DHT22;29440;48.208;11.162;2023-04-24T13:44:29;14.30;99.90
43810;DHT22;29440;48.208;11.162;2023-04-24T13:46:55;14.10;99.90
43810;DHT22;29440;48.208;11.162;2023-04-24T13:49:23;14.10;99.90
43810;DHT22;29440;48.208;11.162;2023-04-24T13:51:51;14.10;99.90
43810;DHT22;29440;48.208;11.162;2023-04-24T13:54:16;14.00;99.90
43810;DHT22;29440;48.208;11.162;2023-04-24T13:56:42;13.90;99.90
43810;DHT22;29440;48.208;11.162;2023-04-24T13:59:08;13.80;99.90
43810;DHT22;29440;48.208;11.162;2023-04-24T14:01:34;14.00;99.90
43810;DHT22;29440;48.208;11.162;2023-04-24T14:03:59;14.00;99.90
43810;DHT22;29440;48.208;11.162;2023-04-24T14:06:25;14.10;99.90
43810;DHT22;29440;48.208;11.162;2023-04-24T14:08:51;14.10;99.90
43810;DHT22;29440;48.208;11.162;2023-04-24T14:11:18;14.10;99.90
43810;DHT22;29440;48.208;11.162;2023-04-24T14:13:46;14.00;99.90
43810;DHT22;29440;48.208;11.162;2023-04-24T14:16:11;13.90;99.90
43810;DHT22;29440;48.208;11.162;2023-04-24T14:18:37;14.00;99.90
43810;DHT22;29440;48.208;11.162;2023-04-24T14:21:04;13.90;99.90
43810;DHT22;29440;48.208;11.162;2023-04-24T14:23:29;13.90;99.90
43810;DHT22;29440;48.208;11.162;2023-04-24T14:25:56;13.90;99.90
43810;DHT22;29440;48.208;11.162;2023-04-24T14:28:22;13.90;99.90
43810;DHT22;29440;48.208;11.162;2023-04-24T14:30:48;14.00;99.90
43810;DHT22;29440;48.208;11.162;2023-04-24T14:33:14;14.10;99.90
43810;DHT22;29440;48.208;11.162;2023-04-24T14:35:41;14.20;99.90
43810;DHT22;29440;48.208;11.162;2023-04-24T14:38:07;14.30;99.90
43810;DHT22;29440;48.208;11.162;2023-04-24T14:40:33;14.40;99.90
43810;DHT22;29440;48.208;11.162;2023-04-24T14:42:59;14.50;99.90
43810;DHT22;29440;48.208;11.162;2023-04-24T14:45:25;14.40;99.90
43810;DHT22;29440;48.208;11.162;2023-04-24T14:47:52;14.40;99.90
43810;DHT22;29440;48.208;11.162;2023-04-24T14:50:18;14.50;99.90
43810;DHT22;29440;48.208;11.162;2023-04-24T14:52:43;14.60;99.90
43810;DHT22;29440;48.208;11.162;2023-04-24T14:55:10;14.70;99.90
43810;DHT22;29440;48.208;11.162;2023-04-24T14:57:35;14.90;99.90
43810;DHT22;29440;48.208;11.162;2023-04-24T15:00:02;14.70;99.90
43810;DHT22;29440;48.208;11.162;2023-04-24T15:02:29;14.70;99.90
43810;DHT22;29440;48.208;11.162;2023-04-24T15:04:54;14.80;99.90
43810;DHT22;29440;48.208;11.162;2023-04-24T15:07:20;14.80;99.90
43810;DHT22;29440;48.208;11.162;2023-04-24T15:09:45;14.80;99.90
43810;DHT22;29440;48.208;11.162;2023-04-24T15:12:12;14.80;99.90
43810;DHT22;29440;48.208;11.162;2023-04-24T15:14:38;14.70;99.90
43810;DHT22;29440;48.208;11.162;2023-04-24T15:17:04;14.60;99.80
43810;DHT22;29440;48.208;11.162;2023-04-24T15:19:29;14.70;99.90
43810;DHT22;29440;48.208;11.162;2023-04-24T15:21:55;14.60;99.90
43810;DHT22;29440;48.208;11.162;2023-04-24T15:24:20;14.60;99.90
43810;DHT22;29440;48.208;11.162;2023-04-24T15:26:46;14.50;99.90